Friday, January 30, 2015
07:54 UTC
  |  Log In   |  Register Free
Airport Search:

Heart Of Georgia Regional Airport
(KEZM)

FAA data valid effective January 08, 2015 - March 05, 2015 (unless otherwise noted).

 
 
 
 
 
 
 
 
 
 
 
 
 
 

Current Aviation Weather for Heart Of Georgia Regional Airport (KEZM)

The most recent METAR observation for KEZM was updated at: 0709
METAR Summary (Translated METAR)
KEZM
300655Z AUTO 23003KT 10SM BKN055 OVC070 12/05 A3014 RMK AO2 T01150046
KDBN
300655Z AUTO 24007KT 10SM SCT050 11/06 A3011 RMK AO2
(22.1 nm NE from KEZM)
KAZE
300655Z AUTO 23006KT 10SM CLR 12/07 A3011 RMK AO2 T01240067
(31.6 nm SE from KEZM)
TAF
No TAF information found within 50 nm of KEZM
  Airport Weather Conditions for KEZM

 Current Weather at EZM
53° F
Overcast
Southwest winds at 3.5 mph
EZM NOAA Radar

Pressure: 30.14 in
Humidity: 63%
Wind: Southwest at 3.5 MPH (3 KT)
Dew Point: 40.3°F
Visibility: 10.00 mi


Airport Weather Forecast for KEZM

Translated METAR and TAF for KEZM
Translated METAR for KEZM (0754 UTC 30 January 2015)
found at http://aviationweather.gov/adds/metars/
 
METAR text: KEZM 300735Z AUTO 25004KT 10SM SCT055 12/08 A3013 RMK AO2 T01170076
Conditions at: KEZM (EASTMAN , GA, US) observed 0735 UTC 30 January 2015
Temperature: 11.7°C (53°F)
Dewpoint: 7.6°C (46°F) [RH = 76%]
Pressure (altimeter): 30.13 inches Hg (1020.4 mb)
Winds: from the WSW (250 degrees) at 5 MPH (4 knots; 2.1 m/s)
Visibility: 10 or more miles (16+ km)
Ceiling: at least 12,000 feet AGL
Clouds: scattered clouds at 5500 feet AGL
Weather: automated observation with no human augmentation;
there may or may not be significant weather present at this time
Translated TAF for KEZM

There is no translated TAF available for this airport

Find All Airport Services Find A Hotel Find A Rental Car Find A Golf Course Find A Restaurant $100 Hamburger



FBO's on the Field
FBO Company Facility Photos Services Transportation Aviation Fuel Prices: Prices include tax
Catering Weather Repair Courtesy Rental Type 100LL JetA JetA+ MOGAS 8087
 
Heart of Georgia Regional Airport

This FBO has not yet been rated
FS:Phillips 66
Last Updated: Jan-05
Login to update fuel prices
SS:
Contact Heart of Georgia Regional AirportMore FBO Information
 
Add another FBO Facility Photos Catering Weather Repair Courtesy Rental Type 100LL JetA JetA+ MOGAS 8087
Services Transportation Aviation Fuel Prices: Prices include tax


model-print
model-print
model-print
model-print